Cartagena, Colombia

11:51 PM COT on May 22, 2015 (GMT -0500)
Rafael Nunez | | Change Station
CLOSE
Current Station
Airport
Location: Cartagena,
Elevation: 39 ft
Nearby Weather Stations

Elev 39 ft 10.45 °N, 75.52 °W | Updated 51 minutes ago

Scattered Clouds
Scattered Clouds
81 °F
Feels Like 87 °F
N
5
Wind Variable Wind from NNE

Today
High -- | Low -- °F
--% Chance of Precip.
Yesterday
High -- | Low -- °F
Precip. -- in
5:39 AM 6:18 PM
Waxing Crescent, 26% visible
Pressure 29.86 in
Visibility 6.2 miles
Clouds Few 1700 ft
Scattered Clouds 20000 ft
Heat Index 87 °F
Dew Point 77 °F
Humidity 89%
Rainfall 0.00 in
Snow Depth Not available.
UV 0 out of 12
Pollen Not available.
Air Quality Not available.
Flu Activity Not available.
METAR SKCG 230400Z 02004KT 9999 FEW017 SCT200 27/25 A2986

More Conditions Fewer Conditions

Pressure 29.86 in
Visibility 6.2 miles
Clouds Few 1700 ft
Scattered Clouds 20000 ft
Heat Index 87 °F
Dew Point 77 °F
Humidity 89%
Rainfall 0.00 in
Snow Depth Not available.
UV 0 out of 12
Pollen Not available.
Air Quality Not available.
Flu Activity Not available.
METAR SKCG 230400Z 02004KT 9999 FEW017 SCT200 27/25 A2986

More Conditions Fewer Conditions

10-Day Weather Forecast

Almanac

Astronomy

May. 22, 2015 Rise Set
Actual Time
Civil Twilight
Nautical Twilight
Astronomical Twilight
Moon
Length of Visible Light
Length of Day
Tomorrow will be .
, % of the Moon is Illuminated

Today's Extremes

Country Highs Country Lows

Community

WunderPhotos

Upload Photos

1,823,387 photos uploaded!

WunderBlogs® & News

Nearby

Air Quality

  Air Quality AQ Index Pollutant
Not available.

Snow Depth

Station Depth Elevation

Earthquake Activity

City Distance Mag. Time & Date
Minimum magnitude displayed is 2.5.

Coastal Water Temperatures

Place Temperature

Stations

Nearby Weather Stations

Station Location Temp. Windchill Dew Point Humidity Wind Precip. Elev Updated Type